地図

経路データ

SID SEASON NUMBER BASIN SUBBASIN NAME ISO_TIME NATURE LAT LON WMO_WIND WMO_PRES WMO_AGENCY TRACK_TYPE DIST2LAND LANDFALL IFLAG USA_AGENCY USA_ATCF_ID USA_LAT USA_LON USA_RECORD USA_STATUS USA_WIND USA_PRES USA_SSHS USA_R34_NE USA_R34_SE USA_R34_SW USA_R34_NW USA_R50_NE USA_R50_SE USA_R50_SW USA_R50_NW USA_R64_NE USA_R64_SE USA_R64_SW USA_R64_NW USA_POCI USA_ROCI USA_RMW USA_EYE TOKYO_LAT TOKYO_LON TOKYO_GRADE TOKYO_WIND TOKYO_PRES TOKYO_R50_DIR TOKYO_R50_LONG TOKYO_R50_SHORT TOKYO_R30_DIR TOKYO_R30_LONG TOKYO_R30_SHORT TOKYO_LAND CMA_LAT CMA_LON CMA_CAT CMA_WIND CMA_PRES HKO_LAT HKO_LON HKO_CAT HKO_WIND HKO_PRES NEWDELHI_LAT NEWDELHI_LON NEWDELHI_GRADE NEWDELHI_WIND NEWDELHI_PRES NEWDELHI_CI NEWDELHI_DP NEWDELHI_POCI REUNION_LAT REUNION_LON REUNION_TYPE REUNION_WIND REUNION_PRES REUNION_TNUM REUNION_CI REUNION_RMW REUNION_R34_NE REUNION_R34_SE REUNION_R34_SW REUNION_R34_NW REUNION_R50_NE REUNION_R50_SE REUNION_R50_SW REUNION_R50_NW REUNION_R64_NE REUNION_R64_SE REUNION_R64_SW REUNION_R64_NW BOM_LAT BOM_LON BOM_TYPE BOM_WIND BOM_PRES BOM_TNUM BOM_CI BOM_RMW BOM_R34_NE BOM_R34_SE BOM_R34_SW BOM_R34_NW BOM_R50_NE BOM_R50_SE BOM_R50_SW BOM_R50_NW BOM_R64_NE BOM_R64_SE BOM_R64_SW BOM_R64_NW BOM_ROCI BOM_POCI BOM_EYE BOM_POS_METHOD BOM_PRES_METHOD NADI_LAT NADI_LON NADI_CAT NADI_WIND NADI_PRES WELLINGTON_LAT WELLINGTON_LON WELLINGTON_WIND WELLINGTON_PRES DS824_LAT DS824_LON DS824_STAGE DS824_WIND DS824_PRES TD9636_LAT TD9636_LON TD9636_STAGE TD9636_WIND TD9636_PRES TD9635_LAT TD9635_LON TD9635_WIND TD9635_PRES TD9635_ROCI NEUMANN_LAT NEUMANN_LON NEUMANN_CLASS NEUMANN_WIND NEUMANN_PRES MLC_LAT MLC_LON MLC_CLASS MLC_WIND MLC_PRES USA_GUST BOM_GUST BOM_GUST_PER REUNION_GUST REUNION_GUST_PER USA_SEAHGT USA_SEARAD_NE USA_SEARAD_SE USA_SEARAD_SW USA_SEARAD_NW STORM_SPEED STORM_DIR
1901297N17133 1901 42 WP MM NOT_NAMED 1901-10-24 04:00:00 NR 17.0000 133.200 main 987 975 __________O___ -1 17.0000 133.200 7 5 305
1901297N17133 1901 42 WP MM NOT_NAMED 1901-10-24 06:00:00 NR 17.0991 133.049 main 975 964 __________P___ -1 17.0991 133.049 7 5 305
1901297N17133 1901 42 WP MM NOT_NAMED 1901-10-24 09:00:00 NR 17.2479 132.823 main 964 959 __________P___ -1 17.2479 132.823 7 5 305
1901297N17133 1901 42 WP MM NOT_NAMED 1901-10-24 12:00:00 NR 17.3977 132.598 main 959 946 __________P___ -1 17.3977 132.598 7 5 305
1901297N17133 1901 42 WP MM NOT_NAMED 1901-10-24 15:00:00 NR 17.5491 132.374 main 946 941 __________P___ -1 17.5491 132.374 7 5 305
1901297N17133 1901 42 WP MM NOT_NAMED 1901-10-24 16:00:00 NR 17.6000 132.300 main 941 931 __________O___ -1 17.6000 132.300 7 5 306
1901297N17133 1901 42 WP MM NOT_NAMED 1901-10-24 18:00:00 NR 17.7030 132.152 main 936 918 __________P___ -1 17.7030 132.152 7 5 307
1901297N17133 1901 42 WP MM NOT_NAMED 1901-10-24 21:00:00 NR 17.8637 131.931 main 918 905 __________P___ -1 17.8637 131.931 7 5 308
1901297N17133 1901 42 WP MM NOT_NAMED 1901-10-25 00:00:00 NR 18.0374 131.708 main 905 898 __________P___ -1 18.0374 131.708 7 6 310
1901297N17133 1901 42 WP MM NOT_NAMED 1901-10-25 03:00:00 NR 18.2303 131.478 main 898 895 __________P___ -1 18.2303 131.478 7 6 312
1901297N17133 1901 42 WP MM NOT_NAMED 1901-10-25 04:00:00 NR 18.3000 131.400 main 895 883 __________O___ -1 18.3000 131.400 7 6 313
1901297N17133 1901 42 WP MM NOT_NAMED 1901-10-25 06:00:00 NR 18.4495 131.236 main 883 879 __________P___ -1 18.4495 131.236 7 7 315
1901297N17133 1901 42 WP MM NOT_NAMED 1901-10-25 09:00:00 NR 18.6928 130.985 main 885 874 __________P___ -1 18.6928 130.985 7 7 316
1901297N17133 1901 42 WP MM NOT_NAMED 1901-10-25 12:00:00 NR 18.9504 130.731 main 881 866 __________P___ -1 18.9504 130.731 7 7 318
1901297N17133 1901 42 WP MM NOT_NAMED 1901-10-25 15:00:00 NR 19.2130 130.481 main 867 858 __________P___ -1 19.2130 130.481 7 7 318
1901297N17133 1901 42 WP MM NOT_NAMED 1901-10-25 16:00:00 NR 19.3000 130.400 main 858 839 __________O___ -1 19.3000 130.400 7 7 318
1901297N17133 1901 42 WP MM NOT_NAMED 1901-10-25 18:00:00 NR 19.4640 130.239 main 839 822 __________P___ -1 19.4640 130.239 7 7 318
1901297N17133 1901 42 WP MM NOT_NAMED 1901-10-25 21:00:00 NR 19.7100 130.004 main 822 805 __________P___ -1 19.7100 130.004 7 7 319
1901297N17133 1901 42 WP MM NOT_NAMED 1901-10-26 00:00:00 NR 19.9587 129.779 main 807 789 __________P___ -1 19.9587 129.779 7 7 321
1901297N17133 1901 42 WP MM NOT_NAMED 1901-10-26 03:00:00 NR 20.2133 129.567 main 792 781 __________P___ -1 20.2133 129.567 7 6 323
1901297N17133 1901 42 WP MM NOT_NAMED 1901-10-26 04:00:00 NR 20.3000 129.500 main 784 777 __________O___ -1 20.3000 129.500 7 6 323
1901297N17133 1901 42 WP MM NOT_NAMED 1901-10-26 06:00:00 NR 20.4723 129.361 main 780 763 __________P___ -1 20.4723 129.361 7 6 324
1901297N17133 1901 42 WP MM NOT_NAMED 1901-10-26 09:00:00 NR 20.7371 129.166 main 767 755 __________P___ -1 20.7371 129.166 7 6 327
1901297N17133 1901 42 WP MM NOT_NAMED 1901-10-26 12:00:00 NR 21.0121 128.991 main 759 753 __________P___ -1 21.0121 128.991 7 6 332
1901297N17133 1901 42 WP MM NOT_NAMED 1901-10-26 15:00:00 NR 21.3004 128.842 main 753 753 __________P___ -1 21.3004 128.842 7 6 336
1901297N17133 1901 42 WP MM NOT_NAMED 1901-10-26 16:00:00 NR 21.4000 128.800 main 757 753 __________O___ -1 21.4000 128.800 7 7 339
1901297N17133 1901 42 WP MM NOT_NAMED 1901-10-26 18:00:00 NR 21.6026 128.717 main 758 743 __________P___ -1 21.6026 128.717 7 7 342
1901297N17133 1901 42 WP MM NOT_NAMED 1901-10-26 21:00:00 NR 21.9190 128.617 main 743 720 __________P___ -1 21.9190 128.617 7 7 346
1901297N17133 1901 42 WP MM NOT_NAMED 1901-10-27 00:00:00 NR 22.2478 128.547 main 720 705 __________P___ -1 22.2478 128.547 7 7 351
1901297N17133 1901 42 WP MM NOT_NAMED 1901-10-27 03:00:00 NR 22.5858 128.507 main 705 701 __________P___ -1 22.5858 128.507 7 7 354
1901297N17133 1901 42 WP MM NOT_NAMED 1901-10-27 04:00:00 NR 22.7000 128.500 main 701 694 __________O___ -1 22.7000 128.500 7 7 357
1901297N17133 1901 42 WP MM NOT_NAMED 1901-10-27 06:00:00 NR 22.9302 128.483 main 694 683 __________P___ -1 22.9302 128.483 7 7 0
1901297N17133 1901 42 WP MM NOT_NAMED 1901-10-27 09:00:00 NR 23.2819 128.483 main 683 676 __________P___ -1 23.2819 128.483 7 7 0
1901297N17133 1901 42 WP MM NOT_NAMED 1901-10-27 12:00:00 NR 23.6357 128.513 main 676 668 __________P___ -1 23.6357 128.513 7 7 6
1901297N17133 1901 42 WP MM NOT_NAMED 1901-10-27 15:00:00 NR 23.9854 128.573 main 676 674 __________P___ -1 23.9854 128.573 7 7 10
1901297N17133 1901 42 WP MM NOT_NAMED 1901-10-27 16:00:00 NR 24.1000 128.600 main 674 671 __________O___ -1 24.1000 128.600 7 7 10
1901297N17133 1901 42 WP MM NOT_NAMED 1901-10-27 18:00:00 NR 24.3117 128.640 main 671 671 __________P___ -1 24.3117 128.640 7 6 12
1901297N17133 1901 42 WP MM NOT_NAMED 1901-10-27 21:00:00 NR 24.6228 128.725 main 677 676 __________P___ -1 24.6228 128.725 7 7 17
1901297N17133 1901 42 WP MM NOT_NAMED 1901-10-28 00:00:00 NR 24.9401 128.850 main 685 657 __________P___ -1 24.9401 128.850 7 7 23
1901297N17133 1901 42 WP MM NOT_NAMED 1901-10-28 03:00:00 NR 25.2793 129.027 main 657 644 __________P___ -1 25.2793 129.027 7 8 26
1901297N17133 1901 42 WP MM NOT_NAMED 1901-10-28 04:00:00 NR 25.4000 129.100 main 644 607 __________O___ -1 25.4000 129.100 7 9 29
1901297N17133 1901 42 WP MM NOT_NAMED 1901-10-28 06:00:00 NR 25.6711 129.268 main 607 557 __________P___ -1 25.6711 129.268 7 10 31
1901297N17133 1901 42 WP MM NOT_NAMED 1901-10-28 09:00:00 NR 26.1032 129.570 main 557 508 __________P___ -1 26.1032 129.570 7 11 34
1901297N17133 1901 42 WP MM NOT_NAMED 1901-10-28 12:00:00 NR 26.5434 129.915 main 508 448 __________P___ -1 26.5434 129.915 7 11 36
1901297N17133 1901 42 WP MM NOT_NAMED 1901-10-28 15:00:00 NR 26.9669 130.278 main 448 436 __________P___ -1 26.9669 130.278 7 11 38
1901297N17133 1901 42 WP MM NOT_NAMED 1901-10-28 16:00:00 NR 27.1000 130.400 main 436 401 __________O___ -1 27.1000 130.400 7 10 40
1901297N17133 1901 42 WP MM NOT_NAMED 1901-10-28 18:00:00 NR 27.3507 130.640 main 401 369 __________P___ -1 27.3507 130.640 7 10 42
1901297N17133 1901 42 WP MM NOT_NAMED 1901-10-28 21:00:00 NR 27.6932 130.993 main 369 339 __________P___ -1 27.6932 130.993 7 9 43
1901297N17133 1901 42 WP MM NOT_NAMED 1901-10-29 00:00:00 NR 28.0066 131.341 main 339 313 __________P___ -1 28.0066 131.341 7 9 45
1901297N17133 1901 42 WP MM NOT_NAMED 1901-10-29 03:00:00 NR 28.3029 131.685 main 316 305 __________P___ -1 28.3029 131.685 7 8 46
1901297N17133 1901 42 WP MM NOT_NAMED 1901-10-29 04:00:00 NR 28.4000 131.800 main 308 __________O___ -1 28.4000 131.800 7 8 47

デジタル台風データ・検索

IBTrACS Databaseについて

本データベースは、米国NOAAが公開する1842年以降の世界の熱帯低気圧のベストトラックデータアーカイブInternational Best Track Archive for Climate Stewardship (IBTrACS)を、ウェブで閲覧しやすい形式に変換したものです。

最終更新日:2021-12-06